Weather reports worldwide

Advertisment
Epinal, France (7173): temperature & dewpoint: 09.12.2018 07:00:00 - 15.12.2018 07:00:00 (CET)Epinal, France (7173): wind speed & gusts: 09.12.2018 07:00:00 - 15.12.2018 07:00:00 (CET)Epinal, France (7173): wind direction: 09.12.2018 07:00:00 - 15.12.2018 07:00:00 (CET)Epinal, France (7173): sunshine duration: 09.12.2018 07:00:00 - 15.12.2018 07:00:00 (CET)Epinal, France (7173): precipitation: 09.12.2018 07:00:00 - 15.12.2018 07:00:00 (CET)
Date & Time tt [°C] td [°C] ff [km/h] ff [kn] fx [km/h] fx [kn] dd sd [min] rr [mm]
15.12.2018 07:00:00 - - - - - - - - -
15.12.2018 06:00:00 -2,1 -3,8 0 0 4 2 N 0 0,0
15.12.2018 05:00:00 -2,2 -3,6 0 0 4 2 N 0 0,0
15.12.2018 04:00:00 -2,3 -3,7 0 0 4 2 N 0 0,0
15.12.2018 03:00:00 -2,3 -3,7 0 0 5 3 N 0 0,0
15.12.2018 02:00:00 -2,4 -3,7 2 1 4 2 S 0 0,0
15.12.2018 01:00:00 -3,0 -4,1 0 0 4 2 N 0 -
15.12.2018 00:00:00 -3,5 -4,5 2 1 4 2 ESE 0 0,0
14.12.2018 23:00:00 -4,3 -5,1 0 0 4 2 N 0 0,0
14.12.2018 22:00:00 -5,5 -6,5 4 2 4 2 E 0 0,0
14.12.2018 21:00:00 -4,8 -5,9 4 2 4 2 E 0 0,0
14.12.2018 20:00:00 -3,8 -5,3 0 0 5 3 N 0 0,0
14.12.2018 19:00:00 -3,1 -5,0 2 1 9 5 NE 0 -
14.12.2018 18:00:00 -1,8 -4,6 5 3 15 8 N 0 0,0
14.12.2018 17:00:00 -1,0 -4,5 8 4 22 12 N 12 0,0
14.12.2018 16:00:00 0,4 -4,1 13 7 18 10 N 60 0,0
14.12.2018 15:00:00 1,2 -3,7 9 5 21 11 N 60 0,0
14.12.2018 14:00:00 1,3 -3,8 11 6 18 10 N 60 0,0
14.12.2018 13:00:00 1,1 -3,6 11 6 22 12 NNE 60 -
14.12.2018 12:00:00 0,4 -3,5 13 7 18 10 NNE 60 0,0
14.12.2018 11:00:00 -2,1 -3,8 4 2 5 3 SSW 54 0,0
14.12.2018 10:00:00 -5,1 -6,1 4 2 4 2 E 0 0,0
14.12.2018 09:00:00 -6,4 -7,2 2 1 4 2 SE 0 0,0
14.12.2018 08:00:00 -6,6 -7,4 0 0 4 2 N 0 0,0
14.12.2018 07:00:00 -6,4 -7,1 4 2 4 2 SE 0 -
14.12.2018 06:00:00 -5,9 -6,6 4 2 8 4 S 0 0,0
14.12.2018 05:00:00 -5,5 -6,3 0 0 5 3 N 0 0,0
14.12.2018 04:00:00 -3,8 -5,5 4 2 8 4 N 0 0,0
14.12.2018 03:00:00 -3,1 -5,0 4 2 13 7 NNE 0 0,0
14.12.2018 02:00:00 -2,7 -4,7 4 2 11 6 ENE 0 0,0
14.12.2018 01:00:00 -2,8 -4,5 4 2 11 6 NNE 0 -
14.12.2018 00:00:00 -2,5 -4,5 4 2 16 9 NE 0 0,0
13.12.2018 23:00:00 -2,2 -4,1 8 4 16 9 NE 0 0,0
13.12.2018 22:00:00 -2,0 -4,0 8 4 21 11 NNE 0 0,0
13.12.2018 21:00:00 -1,8 -3,8 9 5 15 8 N 0 0,0
13.12.2018 20:00:00 -1,8 -3,8 8 4 16 9 NNE 0 0,0
13.12.2018 19:00:00 -1,6 -3,8 5 3 22 12 NNE 0 -
13.12.2018 18:00:00 -0,8 -3,7 11 6 21 11 NNE 0 0,0
13.12.2018 17:00:00 -0,4 -3,3 8 4 22 12 NNE 0 0,0
13.12.2018 16:00:00 0,1 -2,3 13 7 29 16 NNE 0 0,0
13.12.2018 15:00:00 0,5 -1,7 15 8 26 14 NNE 0 0,0
13.12.2018 14:00:00 0,4 -1,7 15 8 24 13 NNE 0 0,0
13.12.2018 13:00:00 0,2 -1,4 13 7 22 12 N 6 -
13.12.2018 12:00:00 0,1 -1,2 8 4 16 9 NNE 54 0,0
13.12.2018 11:00:00 -0,6 -1,6 8 4 15 8 NNE 60 0,0
13.12.2018 10:00:00 -1,5 -2,1 2 1 4 2 NE 60 0,0
13.12.2018 09:00:00 -4,6 -5,1 0 0 4 2 N 12 0,0
13.12.2018 08:00:00 -5,1 -5,6 0 0 4 2 N 0 0,0
13.12.2018 07:00:00 -5,1 -5,6 2 1 4 2 SE 0 -
13.12.2018 06:00:00 -4,6 -5,0 0 0 4 2 N 0 0,0
13.12.2018 05:00:00 -4,8 -5,6 0 0 4 2 N 0 0,0
13.12.2018 04:00:00 -4,2 -4,7 0 0 5 3 N 0 0,0
13.12.2018 03:00:00 -4,3 -4,7 0 0 2 1 N 0 0,0
13.12.2018 02:00:00 -4,8 -5,3 2 1 4 2 ESE 0 0,0
13.12.2018 01:00:00 -4,9 -5,4 2 1 4 2 ESE 0 -
13.12.2018 00:00:00 -5,3 -5,8 0 0 4 2 N 0 0,0
12.12.2018 23:00:00 -3,9 -4,2 0 0 2 1 N 0 0,0
12.12.2018 22:00:00 -3,3 -3,6 0 0 4 2 N 0 0,0
12.12.2018 21:00:00 -2,7 -2,8 0 0 4 2 N 0 0,0
12.12.2018 20:00:00 -2,1 -2,2 0 0 9 5 N 0 0,0
12.12.2018 19:00:00 -1,5 -1,6 5 3 9 5 NNE 0 -
12.12.2018 18:00:00 -1,0 -1,0 8 4 13 7 NE 0 0,0
12.12.2018 17:00:00 -1,1 -1,1 8 4 11 6 NNE 0 0,0
12.12.2018 16:00:00 -0,8 -0,9 8 4 11 6 NNW 0 0,0
12.12.2018 15:00:00 -1,0 -1,1 5 3 13 7 NNE 0 0,0
12.12.2018 14:00:00 -1,5 -1,6 5 3 13 7 NNE 0 0,0
12.12.2018 13:00:00 -1,8 -1,9 8 4 11 6 NNE 0 -
12.12.2018 12:00:00 -2,1 -2,4 8 4 11 6 N 12 0,0
12.12.2018 11:00:00 -1,7 -2,3 2 1 8 4 NNE 60 0,0
12.12.2018 10:00:00 -3,3 -3,8 0 0 4 2 N 60 0,0
12.12.2018 09:00:00 -4,7 -5,1 0 0 4 2 N 18 0,0
12.12.2018 08:00:00 -5,3 -5,8 0 0 4 2 N 0 0,0
12.12.2018 07:00:00 -5,6 -6,3 0 0 4 2 N 0 -
12.12.2018 06:00:00 -5,2 -5,7 0 0 0 0 N 0 0,0
12.12.2018 05:00:00 -4,3 -4,6 0 0 2 1 N 0 0,0
12.12.2018 04:00:00 -4,5 -4,8 2 1 4 2 N 0 0,0
12.12.2018 03:00:00 -4,9 -5,3 2 1 4 2 NNW 0 0,0
12.12.2018 02:00:00 -4,3 -4,7 0 0 2 1 N 0 0,0
12.12.2018 01:00:00 -3,1 -3,4 0 0 0 0 N 0 -
12.12.2018 00:00:00 -2,6 -2,7 0 0 4 2 N 0 0,0
11.12.2018 23:00:00 -1,8 -1,8 0 0 4 2 N 0 0,0
11.12.2018 22:00:00 -1,5 -1,5 2 1 8 4 E 0 0,0
11.12.2018 21:00:00 -2,0 -2,4 0 0 4 2 N 0 0,0
11.12.2018 20:00:00 -1,2 -1,6 4 2 5 3 ESE 0 0,0
11.12.2018 19:00:00 0,1 -0,6 2 1 5 3 SSE 0 -
11.12.2018 18:00:00 -0,1 -0,7 0 0 8 4 N 0 0,0
11.12.2018 17:00:00 1,1 -0,2 0 0 9 5 N 0 0,0
11.12.2018 16:00:00 2,8 1,0 5 3 13 7 N 42 0,0
11.12.2018 15:00:00 4,4 0,4 8 4 11 6 NNW 42 0,0
11.12.2018 14:00:00 3,6 1,5 4 2 9 5 NNW 0 0,0
11.12.2018 13:00:00 3,3 1,8 4 2 9 5 NW 6 -
11.12.2018 12:00:00 3,0 2,1 4 2 5 3 NNW 0 0,0
11.12.2018 11:00:00 2,1 1,7 4 2 9 5 WNW 0 0,0
11.12.2018 10:00:00 2,0 1,7 5 3 9 5 NNW 0 0,0
11.12.2018 09:00:00 1,6 1,5 4 2 5 3 SSW 0 0,0
11.12.2018 08:00:00 1,0 0,9 2 1 4 2 SSE 0 0,0
11.12.2018 07:00:00 0,7 0,6 0 0 4 2 N 0 -
11.12.2018 06:00:00 0,3 0,2 0 0 4 2 N 0 0,0
11.12.2018 05:00:00 -0,4 -0,5 2 1 5 3 E 0 0,0
11.12.2018 04:00:00 -0,1 -0,4 4 2 5 3 ESE 0 0,0
11.12.2018 03:00:00 0,9 0,5 0 0 4 2 N 0 0,0
11.12.2018 02:00:00 2,3 0,8 4 2 13 7 WNW 0 0,0
11.12.2018 01:00:00 3,0 2,4 4 2 8 4 NNE 0 -
11.12.2018 00:00:00 3,8 2,6 0 0 8 4 N 0 0,0
10.12.2018 23:00:00 4,4 2,9 4 2 16 9 WNW 0 0,0
10.12.2018 22:00:00 4,4 3,1 9 5 13 7 WSW 0 0,0
10.12.2018 21:00:00 3,4 3,0 5 3 11 6 SSW 0 0,0
10.12.2018 20:00:00 3,3 2,6 4 2 11 6 SE 0 0,0
10.12.2018 19:00:00 3,6 3,2 8 4 9 5 S 0 -
10.12.2018 18:00:00 4,2 3,3 5 3 11 6 SSW 0 0,0
10.12.2018 17:00:00 5,6 3,9 9 5 13 7 WSW 0 0,0
10.12.2018 16:00:00 5,4 4,2 5 3 35 19 W 6 0,6
10.12.2018 15:00:00 6,0 4,3 9 5 21 11 WNW 0 0,0
10.12.2018 14:00:00 6,0 3,8 11 6 35 19 WNW 12 2,0
10.12.2018 13:00:00 6,6 4,8 11 6 22 12 WNW 6 -
10.12.2018 12:00:00 6,7 4,2 8 4 18 10 W 0 0,0
10.12.2018 11:00:00 6,1 4,1 8 4 16 9 WSW 0 0,0
10.12.2018 10:00:00 5,7 4,0 8 4 15 8 SW 0 0,0
10.12.2018 09:00:00 5,1 3,9 8 4 9 5 SSW 0 0,0
10.12.2018 08:00:00 4,8 3,5 8 4 15 8 SW 0 0,2
10.12.2018 07:00:00 5,4 2,9 9 5 18 10 W 0 -
10.12.2018 06:00:00 5,6 2,9 11 6 22 12 W 0 0,0
10.12.2018 05:00:00 5,7 3,5 11 6 22 12 W 0 0,0
10.12.2018 04:00:00 5,5 3,8 9 5 16 9 WSW 0 0,0
10.12.2018 03:00:00 5,7 3,7 9 5 18 10 SW 0 0,0
10.12.2018 02:00:00 5,5 3,7 9 5 15 8 SW 0 0,0
10.12.2018 01:00:00 5,4 3,6 9 5 16 9 S 0 -
10.12.2018 00:00:00 5,1 3,3 5 3 18 10 SW 0 0,0
09.12.2018 23:00:00 5,9 3,6 11 6 18 10 W 0 0,0
09.12.2018 22:00:00 6,4 3,7 9 5 26 14 W 0 0,0
09.12.2018 21:00:00 7,1 4,4 21 11 37 20 WNW 0 0,0
09.12.2018 20:00:00 6,5 5,4 13 7 24 13 WSW 0 0,0
09.12.2018 19:00:00 6,9 5,0 18 10 34 18 W 0 -
09.12.2018 18:00:00 7,3 5,9 22 12 41 22 WNW 0 2,0
09.12.2018 17:00:00 7,3 5,9 18 10 42 23 WSW 0 0,4
09.12.2018 16:00:00 7,5 5,5 24 13 44 24 WSW 0 0,8
09.12.2018 15:00:00 7,5 5,3 29 16 63 34 WSW 0 1,0
09.12.2018 14:00:00 7,9 5,2 28 15 54 29 WSW 0 0,0
09.12.2018 13:00:00 7,8 4,7 28 15 54 29 WSW 0 -
09.12.2018 12:00:00 8,1 4,9 29 16 61 33 WSW 0 0,4
09.12.2018 11:00:00 7,8 4,6 26 14 52 28 WSW 0 0,0
09.12.2018 10:00:00 7,8 4,0 28 15 57 31 WSW 12 0,0
09.12.2018 09:00:00 7,4 4,4 22 12 48 26 SW 0 0,0
09.12.2018 08:00:00 7,4 4,2 28 15 57 31 WSW 0 0,0
09.12.2018 07:00:00 7,8 4,6 22 12 50 27 WSW 0 -

tt = temperature
td = dewpoint
ff = wind speed
fx = gusts
dd = wind direction
sd = sunshine duration
rr = precipitation

Next stations